LSGGHECA

Guest
Details From LSGG - Geneva
To HECA - Cairo Intl
Flight Number -
Tags Generated
Created
Modified
Stats Distance 1,525 nm / 2,825 km
Max Altitude 0 ft / 0 m
Waypoints 9
Social Downloads 3
Likes 0
Share VATSIM

Download

Looking for another format? Having issues loading an existing format? Contact us
Advertisement - Login to hide

Notes

Generated

Route

LSGG KARPI PES LCC11 TRL IRA GESAD R2526 HECA

ID Type Via Altitude Latitude Longitude Leg Dist Tot Dist Heading (true) Name
O LSGG APT - 0 ft / 0 m 46.23482˚ 6.09953˚ - 0 nm - -
KARPI FIX - 0 ft / 0 m 44.48417˚ 10.16250˚ 201 nm 201 nm 120° / 123° -
PES VOR - 0 ft / 0 m 42.43611˚ 14.18444˚ 214 nm 415 nm 124° / 126° PESCARA VOR-DME
LCC11 FIX - 0 ft / 0 m 40.08675˚ 18.24411˚ 231 nm 646 nm 126° / 129° -
TRL VOR - 0 ft / 0 m 37.40275˚ 22.33963˚ 250 nm 896 nm 129° / 131° TRIPOLIS VOR-DME
IRA VOR - 0 ft / 0 m 35.34083˚ 25.18528˚ 185 nm 1082 nm 131° / 133° IRAKLION VOR-DME
GESAD FIX - 0 ft / 0 m 32.94472˚ 28.33500˚ 212 nm 1294 nm 132° / 133° -
R2526 FIX - 0 ft / 0 m 30.13909˚ 31.40626˚ 230 nm 1525 nm 136° / 138° -
O HECA APT - 0 ft / 0 m 30.13821˚ 31.40615˚ 0 nm 1525 nm 187° / 187° -

Altitude Profile

Advertisement - Login to hide

Weather


0- 5 10 15 20 25 30 35+ Temperature / ° C

Clouds and Precipitation
Forecast for 2018-05-28 00:00 UTC. Updated 3 hours ago

Ground ~20,000 ft ~40,000 ft Winds

LSGG

Details ICAO LSGG (GVA)
Name Geneva
Region Switzerland
Timezone Europe/Zurich (UTC+2.0)
Stats Elevation 1,410 ft / 430 m (AMSL)
Location 46.237755° 6.106173°
Runways 2
Magnetic Variation 1.792° E

METAR

LSGG 280120Z AUTO VRB01KT 9999 FEW003 BKN120 BKN140 14/14 Q1018 NOSIG

Decode

TAF

TAF TAF LSGG 272325Z 2800/2906 VRB03KT 9999 FEW050 BKN090 TX24/2815Z TN14/2804Z TN14/2905Z PROB30 TEMPO 2808/2811 TSRA SCT050CB PROB40 TEMPO 2815/2820 VRB15G25KT 4500 TSRA SCT050CB PROB40 TEMPO 2901/2906 4500 TSRA SCT040CB

Decode

Departure Runways

ID Width Length Bearing (true) Bearing (mag) Surface Threshold Offset Overrun Length
05 180 ft / 55 m 12,796 ft / 3,900 m 45.43° 43.64° Concrete 1,079 ft / 329 m 66 ft / 20 m
05L 98 ft / 30 m 2,701 ft / 823 m 45.44° 43.65° Grass 610 ft / 186 m 0 ft / 0 m
23 180 ft / 55 m 12,796 ft / 3,900 m 225.45° 223.66° Concrete 0 ft / 0 m 66 ft / 20 m
23R 98 ft / 30 m 2,701 ft / 823 m 225.45° 223.66° Grass 997 ft / 304 m 0 ft / 0 m

HECA

Details ICAO HECA (CAI)
Name Cairo Intl
Region Egypt
Timezone Africa/Cairo (UTC+2.0)
Stats Elevation 382 ft / 116 m (AMSL)
Location 30.121808° 31.406095°
Runways 3
Magnetic Variation 4.442° E

METAR

HECA 280130Z 04007KT CAVOK 23/19 Q1011 NOSIG

Decode

TAF

TAF HECA 272300Z 2800/2906 04010KT CAVOK TEMPO 2803/2806 6000 NSC= TAF HEAX 272300Z 2800/2906 31008KT 9999 FEW020 TEMPO 2800/2808 VRB03KT 3000 BR NSC

Decode

Destination Runways

ID Width Length Bearing (true) Bearing (mag) Surface Threshold Offset Overrun Length
05L 197 ft / 60 m 10,833 ft / 3,302 m 49.29° 44.85° Asphalt 0 ft / 0 m 185 ft / 56 m
05R 197 ft / 60 m 13,126 ft / 4,001 m 49.03° 44.59° Asphalt 0 ft / 0 m 216 ft / 66 m
16 197 ft / 60 m 10,456 ft / 3,187 m 162.61° 158.17° Asphalt 0 ft / 0 m 125 ft / 38 m
23L 197 ft / 60 m 13,126 ft / 4,001 m 229.05° 224.61° Asphalt 0 ft / 0 m 225 ft / 69 m
23R 197 ft / 60 m 10,833 ft / 3,302 m 229.30° 224.86° Asphalt 0 ft / 0 m 185 ft / 56 m
34 197 ft / 60 m 10,456 ft / 3,187 m 342.61° 338.17° Asphalt 0 ft / 0 m 195 ft / 59 m

Approach Navaids

Runway Type Ident Frequency Range Bearing (true) Bearing (mag) Slope Elevation
05L Localiser CRL 110.90 MHz 18 nm / 33 km 49.27° 44.83° - 210 ft / 64 m (AMSL)
05L Glidescope CRL 110.90 MHz 10 nm / 19 km 49.29° 44.85° 3.00° 230 ft / 70 m (AMSL)
05L DME CRL 110.90 MHz 18 nm / 33 km - - - 230 ft / 70 m (AMSL)
05R Localiser IROT 109.90 MHz 18 nm / 33 km 49.04° 44.60° - 410 ft / 125 m (AMSL)
05R Glidescope IROT 109.90 MHz 10 nm / 19 km 49.04° 44.60° 3.00° 430 ft / 131 m (AMSL)
05R DME IROT 109.90 MHz 18 nm / 33 km - - - 430 ft / 131 m (AMSL)
23L Localiser ILOT 109.50 MHz 18 nm / 33 km 229.08° 224.64° - 420 ft / 128 m (AMSL)
23L Glidescope ILOT 109.50 MHz 10 nm / 19 km 229.04° 224.60° 3.00° 420 ft / 128 m (AMSL)
23L DME ILOT 109.50 MHz 18 nm / 33 km - - - 420 ft / 128 m (AMSL)
23R Localiser CRR 110.30 MHz 18 nm / 33 km 229.29° 224.85° - 210 ft / 64 m (AMSL)
23R Glidescope CRR 110.30 MHz 10 nm / 19 km 229.29° 224.85° 3.00° 230 ft / 70 m (AMSL)
23R DME CRR 110.30 MHz 18 nm / 33 km - - - 230 ft / 70 m (AMSL)

Popular Alternatives